createdAt,value
2023-01-30T00:01:23.342Z,100196.43
2023-01-30T00:03:51.948Z,100187.01
2023-01-30T00:06:21.025Z,100179.71
2023-01-30T00:08:49.473Z,100178.54
2023-01-30T00:11:19.832Z,100167.61
2023-01-30T00:13:49.737Z,100161.00
2023-01-30T00:16:18.871Z,100160.27
2023-01-30T00:18:47.403Z,100158.16
2023-01-30T00:21:16.421Z,100158.38
2023-01-30T00:23:45.504Z,100144.55
2023-01-30T00:26:14.306Z,100140.64
2023-01-30T00:28:44.435Z,100140.39
2023-01-30T00:31:12.814Z,100132.71
2023-01-30T00:33:41.196Z,100130.23
2023-01-30T00:36:11.017Z,100125.25
2023-01-30T00:38:39.589Z,100121.27
2023-01-30T00:41:10.080Z,100106.02
2023-01-30T00:43:57.204Z,100113.36
2023-01-30T00:46:44.684Z,100093.57
2023-01-30T00:49:14.065Z,100088.25
2023-01-30T00:51:42.732Z,100078.69
2023-01-30T00:54:11.174Z,100078.35
2023-01-30T00:56:40.447Z,100075.33
2023-01-30T00:59:08.791Z,100073.91
2023-01-30T01:01:37.390Z,100071.61
2023-01-30T01:04:09.670Z,100066.46
2023-01-30T01:06:39.021Z,100060.96
2023-01-30T01:09:07.777Z,100048.86
2023-01-30T01:11:36.489Z,100043.19
2023-01-30T01:14:06.530Z,100039.63
2023-01-30T01:16:37.011Z,100042.08
2023-01-30T01:19:06.366Z,100040.10
2023-01-30T01:21:35.226Z,100034.23
2023-01-30T01:24:05.285Z,100028.38
2023-01-30T01:26:35.684Z,100021.42
2023-01-30T01:29:06.248Z,100011.61
2023-01-30T01:31:35.058Z,100002.21
2023-01-30T01:34:03.663Z,100000.26
2023-01-30T01:36:52.855Z,99995.66
2023-01-30T01:39:21.713Z,99996.19
2023-01-30T01:41:52.214Z,99994.06
2023-01-30T01:44:20.784Z,99981.23
2023-01-30T01:46:55.588Z,99972.55
2023-01-30T01:49:28.331Z,99967.59
2023-01-30T01:51:59.305Z,99959.23
2023-01-30T01:54:33.966Z,99942.30
2023-01-30T01:57:07.475Z,99933.92
2023-01-30T01:59:42.847Z,99919.49
2023-01-30T02:02:14.288Z,99900.60
2023-01-30T02:05:01.888Z,99893.65
2023-01-30T02:07:36.853Z,99885.30
2023-01-30T02:10:10.611Z,99882.45
2023-01-30T02:12:40.994Z,99871.96
2023-01-30T02:15:11.402Z,99862.52
2023-01-30T02:17:42.606Z,99853.98
2023-01-30T02:20:21.221Z,99842.77
2023-01-30T02:23:24.579Z,99837.58
2023-01-30T02:26:11.766Z,99831.52
2023-01-30T02:29:10.146Z,99819.95
2023-01-30T02:31:43.174Z,99809.46
2023-01-30T02:34:39.216Z,99801.09
2023-01-30T02:37:23.278Z,99798.42
2023-01-30T02:40:05.589Z,99794.14
2023-01-30T02:42:43.061Z,99791.83
2023-01-30T02:45:21.274Z,99778.31
2023-01-30T02:47:56.556Z,99771.89
2023-01-30T02:50:29.248Z,99765.32
2023-01-30T02:52:58.245Z,99759.80
2023-01-30T02:55:28.966Z,99738.80
2023-01-30T02:57:58.121Z,99708.54
2023-01-30T03:00:40.286Z,99697.68
2023-01-30T03:03:34.548Z,99705.88
2023-01-30T03:06:26.142Z,99711.74
2023-01-30T03:09:07.260Z,99725.27
2023-01-30T03:11:42.578Z,99733.63
2023-01-30T03:14:21.628Z,99742.70
2023-01-30T03:16:53.945Z,99743.39
2023-01-30T03:19:24.077Z,99749.61
2023-01-30T03:21:52.910Z,99745.89
2023-01-30T03:24:23.675Z,99730.92
2023-01-30T03:26:58.128Z,99720.80
2023-01-30T03:29:27.086Z,99729.17
2023-01-30T03:31:55.526Z,99726.51
2023-01-30T03:34:23.946Z,99715.31
2023-01-30T03:36:53.690Z,99705.52
2023-01-30T03:39:24.930Z,99691.64
2023-01-30T03:41:54.296Z,99678.11
2023-01-30T03:44:22.898Z,99663.52
2023-01-30T03:46:51.388Z,99664.58
2023-01-30T03:49:20.889Z,99678.82
2023-01-30T03:51:49.711Z,99667.60
2023-01-30T03:54:18.177Z,99655.52
2023-01-30T03:56:46.851Z,99646.98
2023-01-30T03:59:15.260Z,99653.91
2023-01-30T04:01:49.903Z,99649.47
2023-01-30T04:04:18.904Z,99629.53
2023-01-30T04:06:47.330Z,99626.70
2023-01-30T04:09:15.699Z,99623.13
2023-01-30T04:11:48.862Z,99612.09
2023-01-30T04:14:17.912Z,99600.00
2023-01-30T04:17:05.914Z,99599.82
2023-01-30T04:19:47.231Z,99595.38
2023-01-30T04:22:16.480Z,99595.37
2023-01-30T04:24:47.268Z,99589.86
2023-01-30T04:27:17.916Z,99575.28
2023-01-30T04:30:03.305Z,99591.48
2023-01-30T04:32:32.251Z,99589.33
2023-01-30T04:35:01.051Z,99579.02
2023-01-30T04:37:29.662Z,99576.70
2023-01-30T04:39:58.576Z,99577.23
2023-01-30T04:42:28.410Z,99572.97
2023-01-30T04:45:20.493Z,99575.46
2023-01-30T04:47:49.426Z,99571.89
2023-01-30T04:50:18.680Z,99564.08
2023-01-30T04:52:47.861Z,99558.02
2023-01-30T04:55:16.411Z,99550.37
2023-01-30T04:57:45.235Z,99546.64
2023-01-30T05:00:15.512Z,99535.08
2023-01-30T05:02:50.147Z,99531.88
2023-01-30T05:05:19.106Z,99532.95
2023-01-30T05:07:48.022Z,99520.67
2023-01-30T05:10:17.890Z,99517.66
2023-01-30T05:12:46.667Z,99512.49
2023-01-30T05:15:15.491Z,99502.54
2023-01-30T05:17:44.839Z,99492.77
2023-01-30T05:20:15.052Z,99487.09
2023-01-30T05:22:43.884Z,99480.85
2023-01-30T05:25:12.711Z,99478.52
2023-01-30T05:27:41.994Z,99460.21
2023-01-30T05:30:12.642Z,99457.54
2023-01-30T05:32:41.888Z,99460.05
2023-01-30T05:35:10.567Z,99443.34
2023-01-30T05:37:40.189Z,99446.36
2023-01-30T05:40:11.592Z,99442.27
2023-01-30T05:42:39.895Z,99436.92
2023-01-30T05:45:10.944Z,99426.08
2023-01-30T05:47:39.406Z,99421.63
2023-01-30T05:50:14.895Z,99413.08
2023-01-30T05:52:45.439Z,99421.08
2023-01-30T05:55:14.427Z,99413.41
2023-01-30T05:57:42.939Z,99411.09
2023-01-30T06:00:14.293Z,99406.66
2023-01-30T06:02:43.001Z,99397.06
2023-01-30T06:05:12.828Z,99398.67
2023-01-30T06:07:43.476Z,99395.63
2023-01-30T06:10:12.559Z,99394.04
2023-01-30T06:12:40.824Z,99382.30
2023-01-30T06:15:12.244Z,99389.04
2023-01-30T06:17:43.500Z,99383.54
2023-01-30T06:20:14.044Z,99390.64
2023-01-30T06:22:42.378Z,99388.31
2023-01-30T06:25:12.057Z,99387.41
2023-01-30T06:27:42.595Z,99384.58
2023-01-30T06:30:13.361Z,99383.48
2023-01-30T06:32:42.066Z,99376.58
2023-01-30T06:35:10.616Z,99376.05
2023-01-30T06:37:39.549Z,99380.31
2023-01-30T06:40:11.035Z,99369.85
2023-01-30T06:42:43.297Z,99366.65
2023-01-30T06:45:12.619Z,99367.70
2023-01-30T06:47:52.180Z,99359.50
2023-01-30T06:50:25.211Z,99363.42
2023-01-30T06:52:53.232Z,99360.94
2023-01-30T06:55:26.171Z,99348.26
2023-01-30T06:58:04.141Z,99341.31
2023-01-30T07:00:33.319Z,99338.29
2023-01-30T07:03:03.742Z,99335.08
2023-01-30T07:05:33.088Z,99332.39
2023-01-30T07:08:02.135Z,99324.77
2023-01-30T07:10:31.931Z,99325.30
2023-01-30T07:13:01.463Z,99325.82
2023-01-30T07:15:30.160Z,99315.66
2023-01-30T07:17:59.535Z,99310.52
2023-01-30T07:20:29.491Z,99301.42
2023-01-30T07:22:58.257Z,99295.39
2023-01-30T07:25:28.305Z,99296.52
2023-01-30T07:27:59.033Z,99297.02
2023-01-30T07:30:29.881Z,99295.38
2023-01-30T07:32:59.760Z,99291.64
2023-01-30T07:35:31.800Z,99297.33
2023-01-30T07:38:00.705Z,99281.27
2023-01-30T07:40:29.595Z,99295.35
2023-01-30T07:42:59.820Z,99297.48
2023-01-30T07:45:31.351Z,99280.36
2023-01-30T07:47:59.686Z,99285.16
2023-01-30T07:50:28.328Z,99293.89
2023-01-30T07:52:57.045Z,99289.25
2023-01-30T07:55:26.523Z,99295.65
2023-01-30T07:57:55.506Z,99289.72
2023-01-30T08:00:25.445Z,99291.70
2023-01-30T08:02:54.711Z,99291.51
2023-01-30T08:05:23.710Z,99281.19
2023-01-30T08:07:53.035Z,99281.38
2023-01-30T08:10:21.913Z,99279.78
2023-01-30T08:12:50.954Z,99274.59
2023-01-30T08:15:21.841Z,99273.19
2023-01-30T08:17:59.030Z,99273.16
2023-01-30T08:20:28.499Z,99264.21
2023-01-30T08:22:59.212Z,99261.16
2023-01-30T08:25:28.455Z,99253.49
2023-01-30T08:28:02.519Z,99258.97
2023-01-30T08:30:31.597Z,99257.04
2023-01-30T08:33:00.719Z,99258.79
2023-01-30T08:35:29.721Z,99257.85
2023-01-30T08:37:59.169Z,99252.13
2023-01-30T08:40:27.711Z,99250.48
2023-01-30T08:42:56.560Z,99250.30
2023-01-30T08:45:25.764Z,99253.43
2023-01-30T08:47:57.507Z,99240.27
2023-01-30T08:50:26.274Z,99237.38
2023-01-30T08:52:55.086Z,99237.73
2023-01-30T08:55:23.632Z,99241.66
2023-01-30T08:57:55.603Z,99242.23
2023-01-30T09:00:24.709Z,99235.42
2023-01-30T09:02:54.373Z,99231.08
2023-01-30T09:05:23.508Z,99240.73
2023-01-30T09:07:52.230Z,99237.09
2023-01-30T09:10:21.701Z,99235.84
2023-01-30T09:12:50.785Z,99232.48
2023-01-30T09:15:19.651Z,99231.96
2023-01-30T09:17:48.202Z,99225.16
2023-01-30T09:20:20.252Z,99237.82
2023-01-30T09:22:49.049Z,99232.86
2023-01-30T09:25:18.059Z,99240.89
2023-01-30T09:27:49.879Z,99238.04
2023-01-30T09:30:20.124Z,99233.58
2023-01-30T09:32:49.209Z,99231.79
2023-01-30T09:35:18.217Z,99233.21
2023-01-30T09:37:49.888Z,99240.52
2023-01-30T09:40:22.444Z,99232.80
2023-01-30T09:43:13.199Z,99228.17
2023-01-30T09:45:52.922Z,99225.29
2023-01-30T09:48:29.844Z,99219.75
2023-01-30T09:51:15.979Z,99222.95
2023-01-30T09:54:01.123Z,99221.48
2023-01-30T09:56:30.441Z,99217.75
2023-01-30T09:59:01.612Z,99220.27
2023-01-30T10:01:40.415Z,99215.65
2023-01-30T10:04:15.869Z,99212.41
2023-01-30T10:06:57.391Z,99219.33
2023-01-30T10:09:39.517Z,99208.80
2023-01-30T10:12:28.460Z,99205.21
2023-01-30T10:15:16.134Z,99210.19
2023-01-30T10:17:57.845Z,99198.77
2023-01-30T10:20:40.776Z,99198.42
2023-01-30T10:23:32.563Z,99190.16
2023-01-30T10:26:09.193Z,99189.47
2023-01-30T10:28:44.287Z,99180.20
2023-01-30T10:31:16.343Z,99176.63
2023-01-30T10:33:54.714Z,99174.27
2023-01-30T10:36:29.019Z,99180.29
2023-01-30T10:39:00.992Z,99179.95
2023-01-30T10:41:34.521Z,99179.23
2023-01-30T10:44:08.011Z,99177.98
2023-01-30T10:46:56.728Z,99178.53
2023-01-30T10:49:36.521Z,99169.95
2023-01-30T10:52:19.671Z,99169.96
2023-01-30T10:54:59.623Z,99161.90
2023-01-30T10:57:43.317Z,99157.16
2023-01-30T11:00:23.122Z,99156.23
2023-01-30T11:03:05.462Z,99156.39
2023-01-30T11:05:41.785Z,99150.80
2023-01-30T11:08:20.412Z,99160.36
2023-01-30T11:10:49.885Z,99153.89
2023-01-30T11:13:21.150Z,99157.09
2023-01-30T11:15:52.536Z,99154.73
2023-01-30T11:19:14.008Z,99147.16
2023-01-30T11:21:19.391Z,99138.86
2023-01-30T11:23:48.736Z,99140.02
2023-01-30T11:26:22.653Z,99135.52
2023-01-30T11:28:51.980Z,99137.84
2023-01-30T11:31:39.977Z,99129.05
2023-01-30T11:34:16.937Z,99122.77
2023-01-30T11:36:46.604Z,99118.61
2023-01-30T11:39:27.937Z,99120.92
2023-01-30T11:42:03.978Z,99122.12
2023-01-30T11:44:35.200Z,99119.93
2023-01-30T11:47:08.030Z,99112.77
2023-01-30T11:49:52.882Z,99113.44
2023-01-30T11:52:36.309Z,99107.48
2023-01-30T11:55:12.259Z,99099.21
2023-01-30T11:57:43.433Z,99103.11
2023-01-30T12:00:20.520Z,99107.93
2023-01-30T12:02:52.544Z,99096.95
2023-01-30T12:05:28.989Z,99092.93
2023-01-30T12:08:13.944Z,99094.52
2023-01-30T12:10:43.437Z,99092.75
2023-01-30T12:13:18.850Z,99095.58
2023-01-30T12:15:53.920Z,99105.89
2023-01-30T12:18:29.631Z,99109.80
2023-01-30T12:21:01.643Z,99103.60
2023-01-30T12:23:40.023Z,99097.05
2023-01-30T12:26:14.849Z,99091.40
2023-01-30T12:28:50.994Z,99088.18
2023-01-30T12:31:25.407Z,99086.95
2023-01-30T12:33:54.707Z,99068.94
2023-01-30T12:36:35.537Z,99066.40
2023-01-30T12:39:22.963Z,99058.13
2023-01-30T12:44:56.066Z,99056.80
2023-01-30T12:47:50.902Z,99053.39
2023-01-30T12:50:28.790Z,99049.61
2023-01-30T12:53:18.617Z,99056.23
2023-01-30T12:55:56.420Z,99047.45
2023-01-30T12:58:28.622Z,99045.70
2023-01-30T13:01:13.318Z,99043.93
2023-01-30T13:03:45.866Z,99041.18
2023-01-30T13:06:40.628Z,99030.00
2023-01-30T13:09:27.321Z,99024.15
2023-01-30T13:12:04.857Z,99024.21
2023-01-30T13:14:38.122Z,99028.95
2023-01-30T13:17:19.938Z,99038.02
2023-01-30T13:19:57.870Z,99043.48
2023-01-30T13:22:34.936Z,99049.59
2023-01-30T13:25:17.221Z,99046.89
2023-01-30T13:27:53.395Z,99048.71
2023-01-30T13:30:27.020Z,99045.63
2023-01-30T13:33:00.774Z,99048.32
2023-01-30T13:35:35.358Z,99040.52
2023-01-30T13:38:09.351Z,99048.67
2023-01-30T13:40:42.227Z,99046.68
2023-01-30T13:43:16.640Z,99041.86
2023-01-30T13:45:48.213Z,99029.02
2023-01-30T13:48:32.993Z,99043.79
2023-01-30T13:51:16.614Z,99031.64
2023-01-30T13:53:54.299Z,99035.47
2023-01-30T13:56:41.810Z,99041.88
2023-01-30T13:59:22.298Z,99041.91
2023-01-30T14:02:18.005Z,99042.20
2023-01-30T14:04:53.888Z,99040.90
2023-01-30T14:07:27.642Z,99041.41
2023-01-30T14:10:15.168Z,99043.67
2023-01-30T14:12:46.036Z,99045.36
2023-01-30T14:15:28.109Z,99038.08
2023-01-30T14:18:06.415Z,99040.36
2023-01-30T14:20:37.308Z,99032.12
2023-01-30T14:23:20.028Z,99039.61
2023-01-30T14:25:50.545Z,99051.59
2023-01-30T14:28:51.581Z,99053.34
2023-01-30T14:31:53.679Z,99052.61
2023-01-30T14:35:10.268Z,99047.33
2023-01-30T14:38:16.138Z,99049.80
2023-01-30T14:40:48.845Z,99054.08
2023-01-30T14:43:53.028Z,99062.66
2023-01-30T14:46:56.008Z,99068.55
2023-01-30T14:49:30.523Z,99072.76
2023-01-30T14:52:00.237Z,99070.29
2023-01-30T14:54:43.508Z,99074.98
2023-01-30T14:57:23.508Z,99071.91
2023-01-30T15:00:14.307Z,99074.42
2023-01-30T15:02:51.205Z,99077.88
2023-01-30T15:05:26.899Z,99080.72
2023-01-30T15:08:03.300Z,99074.70
2023-01-30T15:11:01.930Z,99073.59
2023-01-30T15:14:00.609Z,99076.47
2023-01-30T15:16:58.634Z,99073.89
2023-01-30T15:19:48.634Z,99071.70
2023-01-30T15:22:26.565Z,99075.80
2023-01-30T15:25:22.794Z,99079.67
2023-01-30T15:28:01.689Z,99077.88
2023-01-30T15:30:56.424Z,99063.10
2023-01-30T15:33:31.565Z,99068.34
2023-01-30T15:36:16.957Z,99068.02
2023-01-30T15:38:45.463Z,99078.23
2023-01-30T15:41:13.830Z,99083.92
2023-01-30T15:43:55.432Z,99074.89
2023-01-30T15:46:33.299Z,99080.84
2023-01-30T15:49:17.555Z,99083.81
2023-01-30T15:51:46.235Z,99076.77
2023-01-30T15:54:18.956Z,99076.54
2023-01-30T15:56:48.861Z,99083.23
2023-01-30T15:59:29.675Z,99088.55
2023-01-30T16:02:07.739Z,99084.70
2023-01-30T16:04:36.268Z,99082.65
2023-01-30T16:07:15.648Z,99083.48
2023-01-30T16:10:06.725Z,99086.36
2023-01-30T16:12:39.960Z,99077.47
2023-01-30T16:15:19.644Z,99073.91
2023-01-30T16:17:59.304Z,99080.32
2023-01-30T16:20:28.913Z,99075.49
2023-01-30T16:22:57.420Z,99079.94
2023-01-30T16:25:33.660Z,99089.42
2023-01-30T16:28:04.158Z,99086.74
2023-01-30T16:30:33.659Z,99081.77
2023-01-30T16:33:09.093Z,99085.39
2023-01-30T16:35:44.356Z,99096.00
2023-01-30T16:38:36.282Z,99099.19
2023-01-30T16:41:05.725Z,99105.44
2023-01-30T16:43:34.737Z,99112.73
2023-01-30T16:46:37.351Z,99112.10
2023-01-30T16:49:12.965Z,99113.52
2023-01-30T16:51:41.582Z,99123.06
2023-01-30T16:54:20.990Z,99125.08
2023-01-30T16:56:54.090Z,99131.96
2023-01-30T16:59:29.191Z,99128.71
2023-01-30T17:01:59.600Z,99140.23
2023-01-30T17:04:31.284Z,99149.17
2023-01-30T17:07:03.378Z,99144.44
2023-01-30T17:09:46.348Z,99144.14
2023-01-30T17:12:49.108Z,99138.62
2023-01-30T17:15:30.223Z,99147.69
2023-01-30T17:17:59.707Z,99154.86
2023-01-30T17:20:50.290Z,99159.00
2023-01-30T17:23:20.739Z,99162.58
2023-01-30T17:25:50.755Z,99162.48
2023-01-30T17:28:23.300Z,99174.16
2023-01-30T17:30:51.923Z,99167.24
2023-01-30T17:33:20.814Z,99170.15
2023-01-30T17:35:49.340Z,99170.06
2023-01-30T17:38:20.231Z,99170.42
2023-01-30T17:40:49.212Z,99174.16
2023-01-30T17:43:17.612Z,99174.84
2023-01-30T17:45:47.476Z,99185.14
2023-01-30T17:48:16.296Z,99195.30
2023-01-30T17:50:44.515Z,99198.24
2023-01-30T17:53:13.132Z,99200.39
2023-01-30T17:55:42.343Z,99203.45
2023-01-30T17:58:16.329Z,99203.28
2023-01-30T18:00:45.335Z,99201.08
2023-01-30T18:03:14.582Z,99205.35
2023-01-30T18:05:42.910Z,99211.38
2023-01-30T18:08:13.171Z,99210.13
2023-01-30T18:10:43.755Z,99215.83
2023-01-30T18:13:12.202Z,99226.16
2023-01-30T18:15:40.958Z,99230.41
2023-01-30T18:18:15.253Z,99226.42
2023-01-30T18:20:43.609Z,99229.63
2023-01-30T18:23:11.893Z,99230.48
2023-01-30T18:25:40.253Z,99232.92
2023-01-30T18:28:10.455Z,99246.05
2023-01-30T18:30:38.863Z,99245.67
2023-01-30T18:33:07.297Z,99256.39
2023-01-30T18:35:37.814Z,99256.54
2023-01-30T18:38:06.072Z,99258.84
2023-01-30T18:40:36.915Z,99255.53
2023-01-30T18:43:05.239Z,99251.17
2023-01-30T18:45:33.985Z,99253.32
2023-01-30T18:48:02.602Z,99264.09
2023-01-30T18:50:30.996Z,99269.77
2023-01-30T18:52:59.362Z,99280.11
2023-01-30T18:55:27.787Z,99287.04
2023-01-30T18:57:57.670Z,99294.93
2023-01-30T19:00:26.177Z,99286.91
2023-01-30T19:02:54.871Z,99283.02
2023-01-30T19:05:23.559Z,99290.01
2023-01-30T19:07:52.386Z,99283.30
2023-01-30T19:10:21.611Z,99299.02
2023-01-30T19:13:08.851Z,99300.10
2023-01-30T19:15:37.539Z,99296.93
2023-01-30T19:18:06.384Z,99295.46
2023-01-30T19:20:36.249Z,99292.08
2023-01-30T19:23:04.803Z,99294.59
2023-01-30T19:25:33.314Z,99305.65
2023-01-30T19:28:01.719Z,99317.13
2023-01-30T19:30:31.139Z,99323.68
2023-01-30T19:32:59.861Z,99330.23
2023-01-30T19:35:28.383Z,99334.50
2023-01-30T19:37:59.449Z,99339.34
2023-01-30T19:40:28.504Z,99336.83
2023-01-30T19:43:09.305Z,99342.75
2023-01-30T19:45:40.425Z,99336.42
2023-01-30T19:48:10.801Z,99336.08
2023-01-30T19:50:39.317Z,99342.73
2023-01-30T19:53:08.368Z,99346.47
2023-01-30T19:55:37.339Z,99344.13
2023-01-30T19:58:05.917Z,99352.35
2023-01-30T20:00:34.464Z,99349.86
2023-01-30T20:03:03.062Z,99353.65
2023-01-30T20:05:32.695Z,99355.38
2023-01-30T20:08:02.122Z,99360.94
2023-01-30T20:10:30.725Z,99357.57
2023-01-30T20:12:59.547Z,99359.39
2023-01-30T20:15:28.730Z,99374.08
2023-01-30T20:17:57.174Z,99369.63
2023-01-30T20:20:26.701Z,99378.21
2023-01-30T20:22:55.555Z,99377.50
2023-01-30T20:25:24.208Z,99375.87
2023-01-30T20:27:53.121Z,99380.84
2023-01-30T20:30:22.391Z,99379.36
2023-01-30T20:32:54.863Z,99384.52
2023-01-30T20:35:23.538Z,99388.14
2023-01-30T20:37:52.738Z,99397.38
2023-01-30T20:40:21.629Z,99398.27
2023-01-30T20:42:50.731Z,99397.66
2023-01-30T20:45:19.301Z,99397.94
2023-01-30T20:47:48.183Z,99399.13
2023-01-30T20:50:18.184Z,99401.23
2023-01-30T20:52:50.721Z,99407.98
2023-01-30T20:55:19.576Z,99411.73
2023-01-30T20:57:48.122Z,99411.84
2023-01-30T21:00:19.017Z,99415.38
2023-01-30T21:02:51.845Z,99424.66
2023-01-30T21:05:21.163Z,99436.61
2023-01-30T21:07:49.970Z,99436.90
2023-01-30T21:10:18.669Z,99434.36
2023-01-30T21:12:46.965Z,99440.23
2023-01-30T21:15:15.709Z,99446.16
2023-01-30T21:17:44.158Z,99440.27
2023-01-30T21:20:12.929Z,99445.24
2023-01-30T21:22:41.340Z,99449.13
2023-01-30T21:25:09.781Z,99452.70
2023-01-30T21:27:40.558Z,99466.83
2023-01-30T21:30:11.750Z,99457.36
2023-01-30T21:32:40.423Z,99468.13
2023-01-30T21:35:10.275Z,99479.18
2023-01-30T21:38:08.374Z,99481.84
2023-01-30T21:40:55.779Z,99492.27
2023-01-30T21:43:28.117Z,99491.41
2023-01-30T21:45:59.245Z,99499.29
2023-01-30T21:48:27.859Z,99495.52
2023-01-30T21:50:57.602Z,99498.36
2023-01-30T21:53:27.265Z,99500.66
2023-01-30T21:55:55.981Z,99506.58
2023-01-30T21:58:24.412Z,99509.10
2023-01-30T22:00:52.823Z,99511.21
2023-01-30T22:03:26.925Z,99524.80
2023-01-30T22:05:55.705Z,99525.35
2023-01-30T22:08:24.461Z,99525.27
2023-01-30T22:11:02.609Z,99539.20
2023-01-30T22:13:32.065Z,99545.75
2023-01-30T22:16:03.322Z,99550.21
2023-01-30T22:18:33.444Z,99552.88
2023-01-30T22:21:04.231Z,99549.80
2023-01-30T22:23:34.916Z,99556.39
2023-01-30T22:26:03.817Z,99556.56
2023-01-30T22:28:34.554Z,99561.34
2023-01-30T22:31:07.371Z,99561.29
2023-01-30T22:33:36.352Z,99565.01
2023-01-30T22:36:07.208Z,99560.05
2023-01-30T22:38:36.252Z,99568.77
2023-01-30T22:41:06.686Z,99579.47
2023-01-30T22:43:36.462Z,99575.70
2023-01-30T22:46:06.859Z,99573.52
2023-01-30T22:48:36.109Z,99577.25
2023-01-30T22:51:06.246Z,99581.52
2023-01-30T22:53:36.011Z,99581.73
2023-01-30T22:56:06.374Z,99584.58
2023-01-30T22:58:35.044Z,99589.39
2023-01-30T23:01:16.654Z,99589.77
2023-01-30T23:03:46.695Z,99590.10
2023-01-30T23:06:16.531Z,99599.02
2023-01-30T23:08:47.039Z,99598.35
2023-01-30T23:11:17.397Z,99601.77
2023-01-30T23:13:48.334Z,99606.45
2023-01-30T23:16:19.887Z,99601.09
2023-01-30T23:18:58.204Z,99608.05
2023-01-30T23:21:28.502Z,99611.79
2023-01-30T23:23:59.212Z,99612.29
2023-01-30T23:26:31.065Z,99618.58
2023-01-30T23:29:01.146Z,99616.08
2023-01-30T23:31:30.183Z,99622.52
2023-01-30T23:34:01.203Z,99618.95
2023-01-30T23:36:30.916Z,99618.61
2023-01-30T23:39:00.478Z,99632.73
2023-01-30T23:41:31.298Z,99628.94
2023-01-30T23:44:00.313Z,99636.98
2023-01-30T23:46:31.078Z,99636.64
2023-01-30T23:49:01.355Z,99636.63
2023-01-30T23:51:32.065Z,99641.42
2023-01-30T23:54:00.542Z,99647.38
2023-01-30T23:56:31.533Z,99652.03
2023-01-30T23:59:00.115Z,99647.23
